Time;durP1;ratioP1;P1;durP2;ratioP2;P2;SDS_P1;SDS_P2;PMS_P1;PMS_P2;Temp;Humidity;BMP_temperature;BMP_pressure;BME280_temperature;BME280_humidity;BME280_pressure;Samples;Min_cycle;Max_cycle;Signal;HPM_P1;HPM_P2
2023/12/21 00:01:48;;;;;;;5.87;1.73;;;;;;;;;;5001454;28;20262;-68
2023/12/21 00:04:13;;;;;;;1.93;1.20;;;;;;;;;;4986194;28;20862;-67
2023/12/21 00:06:38;;;;;;;3.03;1.57;;;;;;;;;;4975854;28;20277;-69
2023/12/21 00:09:06;;;;;;;11.57;2.20;;;;;;;;;;4975465;28;20258;-67
2023/12/21 00:11:31;;;;;;;8.38;1.92;;;;;;;;;;4979186;28;20281;-67
2023/12/21 00:13:58;;;;;;;3.83;1.88;;;;;;;;;;4977478;28;20046;-68
2023/12/21 00:16:23;;;;;;;5.00;1.58;;;;;;;;;;4978124;28;20540;-67
2023/12/21 00:18:48;;;;;;;1.95;1.23;;;;;;;;;;4978834;28;20142;-67
2023/12/21 00:21:14;;;;;;;6.57;1.47;;;;;;;;;;4981863;28;20040;-67
2023/12/21 00:23:39;;;;;;;5.03;1.90;;;;;;;;;;4988898;28;20258;-67
2023/12/21 00:26:04;;;;;;;7.60;1.27;;;;;;;;;;4980243;28;20315;-67
2023/12/21 00:28:29;;;;;;;2.57;0.90;;;;;;;;;;4975878;28;20367;-67
2023/12/21 00:30:54;;;;;;;4.00;1.20;;;;;;;;;;4973493;28;20278;-67
2023/12/21 00:33:19;;;;;;;5.67;1.90;;;;;;;;;;4985126;28;20355;-67
2023/12/21 00:35:45;;;;;;;1.90;1.10;;;;;;;;;;4975442;28;20277;-67
2023/12/21 00:38:10;;;;;;;2.87;1.60;;;;;;;;;;4982408;28;20289;-67
2023/12/21 00:40:35;;;;;;;4.17;1.60;;;;;;;;;;4978060;28;20249;-67
2023/12/21 00:43:00;;;;;;;7.00;1.70;;;;;;;;;;4997837;28;20278;-68
2023/12/21 00:45:25;;;;;;;2.70;1.33;;;;;;;;;;4980392;28;20305;-67
2023/12/21 00:47:51;;;;;;;5.65;2.25;;;;;;;;;;4996447;28;20019;-67
2023/12/21 00:50:16;;;;;;;2.65;1.58;;;;;;;;;;4981330;28;20056;-67
2023/12/21 00:52:41;;;;;;;2.60;1.17;;;;;;;;;;4974130;28;20018;-67
2023/12/21 00:55:06;;;;;;;3.73;1.93;;;;;;;;;;4976680;28;20340;-68
2023/12/21 00:57:32;;;;;;;3.20;1.17;;;;;;;;;;5000169;28;20336;-68
2023/12/21 00:59:57;;;;;;;6.00;1.23;;;;;;;;;;4970026;28;20026;-67
2023/12/21 01:02:22;;;;;;;2.40;1.60;;;;;;;;;;4979758;28;20161;-67
2023/12/21 01:04:47;;;;;;;2.27;1.60;;;;;;;;;;4967463;28;20301;-67
2023/12/21 01:07:12;;;;;;;1.97;1.10;;;;;;;;;;4966484;28;20625;-67
2023/12/21 01:09:38;;;;;;;2.05;1.15;;;;;;;;;;4964460;28;20277;-67
2023/12/21 01:12:04;;;;;;;2.33;1.55;;;;;;;;;;4963569;28;20041;-68
2023/12/21 01:14:29;;;;;;;5.75;1.90;;;;;;;;;;4964868;28;20094;-67
2023/12/21 01:16:54;;;;;;;2.90;1.53;;;;;;;;;;4963932;28;20552;-67
2023/12/21 01:19:19;;;;;;;2.13;1.48;;;;;;;;;;4966469;28;20254;-67
2023/12/21 01:21:45;;;;;;;6.60;3.40;;;;;;;;;;4965648;28;20034;-68
2023/12/21 01:24:10;;;;;;;3.80;2.10;;;;;;;;;;4964168;28;20509;-67
2023/12/21 01:26:35;;;;;;;6.47;2.72;;;;;;;;;;4964415;28;20254;-67
2023/12/21 01:29:00;;;;;;;2.90;1.90;;;;;;;;;;4964233;28;20027;-67
2023/12/21 01:31:25;;;;;;;7.73;3.30;;;;;;;;;;4964410;28;20315;-67
2023/12/21 01:33:50;;;;;;;10.80;5.63;;;;;;;;;;4964583;28;20269;-67
2023/12/21 01:36:16;;;;;;;8.00;3.07;;;;;;;;;;4966438;28;20306;-67
2023/12/21 01:38:41;;;;;;;6.83;3.00;;;;;;;;;;4963901;28;20286;-67
2023/12/21 01:41:06;;;;;;;3.57;2.30;;;;;;;;;;4964078;28;20262;-67
2023/12/21 01:43:31;;;;;;;6.57;2.53;;;;;;;;;;4964156;28;20262;-67
2023/12/21 01:45:57;;;;;;;4.43;2.15;;;;;;;;;;4964447;28;20125;-67
2023/12/21 01:48:23;;;;;;;5.50;2.65;;;;;;;;;;4963543;28;20077;-67
2023/12/21 01:50:48;;;;;;;4.90;2.95;;;;;;;;;;4965331;28;20054;-67
2023/12/21 01:53:14;;;;;;;8.63;4.05;;;;;;;;;;4967570;28;20030;-67
2023/12/21 01:55:40;;;;;;;3.55;1.67;;;;;;;;;;4962581;28;20070;-67
2023/12/21 01:58:06;;;;;;;5.57;2.30;;;;;;;;;;4963473;28;20030;-68
2023/12/21 02:00:31;;;;;;;3.10;1.75;;;;;;;;;;4965012;28;20023;-67
2023/12/21 02:02:56;;;;;;;5.15;3.00;;;;;;;;;;4975628;28;20014;-68
2023/12/21 02:05:21;;;;;;;13.40;3.33;;;;;;;;;;4981847;28;20024;-68
2023/12/21 02:07:47;;;;;;;5.60;2.38;;;;;;;;;;4973531;28;20041;-68
2023/12/21 02:10:13;;;;;;;10.32;2.58;;;;;;;;;;4997458;28;20041;-68
2023/12/21 02:12:38;;;;;;;3.38;1.35;;;;;;;;;;4979230;28;20021;-68
2023/12/21 02:15:03;;;;;;;3.63;1.30;;;;;;;;;;4979303;28;20053;-68
2023/12/21 02:17:29;;;;;;;5.50;2.67;;;;;;;;;;4979670;28;20250;-68
2023/12/21 02:19:54;;;;;;;4.30;2.33;;;;;;;;;;4980937;28;20030;-68
2023/12/21 02:22:21;;;;;;;6.32;2.33;;;;;;;;;;4974835;28;20053;-68
2023/12/21 02:24:47;;;;;;;8.77;2.85;;;;;;;;;;4969586;28;20026;-68
2023/12/21 02:27:12;;;;;;;5.63;1.80;;;;;;;;;;4996604;28;20008;-68
2023/12/21 02:29:37;;;;;;;5.97;1.42;;;;;;;;;;4979129;28;20053;-68
2023/12/21 02:32:03;;;;;;;6.32;2.25;;;;;;;;;;4979686;28;20092;-68
2023/12/21 02:34:28;;;;;;;4.93;2.60;;;;;;;;;;4978896;28;20026;-68
2023/12/21 02:36:53;;;;;;;3.00;1.60;;;;;;;;;;4976297;28;20037;-68
2023/12/21 02:39:18;;;;;;;10.13;2.00;;;;;;;;;;4991456;28;20025;-68
2023/12/21 02:41:43;;;;;;;1.00;0.90;;;;;;;;;;4968234;28;20111;-68
2023/12/21 02:44:09;;;;;;;3.70;1.93;;;;;;;;;;4970503;28;20583;-68
2023/12/21 02:46:34;;;;;;;3.20;1.40;;;;;;;;;;4967580;28;20266;-68
2023/12/21 02:48:59;;;;;;;3.13;1.58;;;;;;;;;;4976312;28;20337;-68
2023/12/21 02:51:24;;;;;;;4.47;2.00;;;;;;;;;;4972866;28;20099;-68
2023/12/21 02:53:49;;;;;;;2.03;1.43;;;;;;;;;;4967732;28;20038;-67
2023/12/21 02:56:15;;;;;;;7.70;2.17;;;;;;;;;;4999610;28;20272;-67
2023/12/21 02:58:40;;;;;;;4.57;1.65;;;;;;;;;;4970994;28;20743;-67
2023/12/21 03:01:05;;;;;;;4.45;2.42;;;;;;;;;;4967389;28;20176;-67
2023/12/21 03:03:30;;;;;;;3.97;1.10;;;;;;;;;;4978284;28;20023;-68
2023/12/21 03:05:55;;;;;;;3.50;2.13;;;;;;;;;;4971722;28;20289;-68
2023/12/21 03:08:21;;;;;;;9.32;2.35;;;;;;;;;;4967149;28;20325;-68
2023/12/21 03:10:46;;;;;;;1.88;1.17;;;;;;;;;;4973933;28;20080;-68
2023/12/21 03:13:11;;;;;;;3.97;2.07;;;;;;;;;;4967936;28;20015;-68
2023/12/21 03:15:36;;;;;;;1.10;1.00;;;;;;;;;;4979813;28;20656;-67
2023/12/21 03:18:02;;;;;;;1.77;1.27;;;;;;;;;;4970197;28;20830;-67
2023/12/21 03:20:27;;;;;;;5.65;2.70;;;;;;;;;;4969671;28;20277;-67
2023/12/21 03:22:52;;;;;;;11.43;2.50;;;;;;;;;;4977808;28;20373;-67
2023/12/21 03:25:17;;;;;;;1.43;1.13;;;;;;;;;;4967422;28;20328;-68
2023/12/21 03:27:43;;;;;;;5.55;1.85;;;;;;;;;;4975741;28;20338;-68
2023/12/21 03:30:08;;;;;;;11.93;1.67;;;;;;;;;;4966268;28;20390;-68
2023/12/21 03:32:35;;;;;;;3.08;1.58;;;;;;;;;;4971651;28;20173;-68
2023/12/21 03:35:01;;;;;;;6.88;2.38;;;;;;;;;;4963856;28;20118;-68
2023/12/21 03:37:27;;;;;;;2.83;1.25;;;;;;;;;;4973507;28;20117;-68
2023/12/21 03:39:53;;;;;;;4.45;1.13;;;;;;;;;;4972833;28;20027;-67
2023/12/21 03:42:18;;;;;;;5.97;1.65;;;;;;;;;;4973325;28;20072;-67
2023/12/21 03:44:43;;;;;;;5.70;1.73;;;;;;;;;;4973077;28;20390;-67
2023/12/21 03:47:09;;;;;;;3.37;1.47;;;;;;;;;;4972172;28;20298;-67
2023/12/21 03:49:34;;;;;;;5.93;2.07;;;;;;;;;;5007644;28;20683;-67
2023/12/21 03:51:59;;;;;;;3.43;2.13;;;;;;;;;;4975539;28;20273;-67
2023/12/21 03:54:24;;;;;;;4.23;2.10;;;;;;;;;;4969596;28;20687;-68
2023/12/21 03:56:49;;;;;;;3.30;1.88;;;;;;;;;;4984622;28;20278;-67
2023/12/21 03:59:14;;;;;;;5.77;1.80;;;;;;;;;;4971866;28;20053;-68
2023/12/21 04:01:40;;;;;;;3.97;1.55;;;;;;;;;;4974740;28;20266;-68
2023/12/21 04:04:05;;;;;;;4.53;1.17;;;;;;;;;;4973025;28;20081;-68
2023/12/21 04:06:30;;;;;;;3.57;1.10;;;;;;;;;;4971104;28;20273;-68
2023/12/21 04:08:55;;;;;;;3.67;1.55;;;;;;;;;;4983098;28;20278;-68
2023/12/21 04:11:21;;;;;;;3.72;1.27;;;;;;;;;;4990055;28;20069;-68
2023/12/21 04:13:47;;;;;;;2.92;1.70;;;;;;;;;;4981882;28;20026;-68
2023/12/21 04:16:12;;;;;;;4.72;1.25;;;;;;;;;;4973173;28;20065;-68
2023/12/21 04:18:37;;;;;;;2.00;0.90;;;;;;;;;;4975218;28;20058;-68
2023/12/21 04:21:05;;;;;;;7.22;2.08;;;;;;;;;;4968531;28;20115;-67
2023/12/21 04:23:30;;;;;;;3.60;1.02;;;;;;;;;;4991133;28;20531;-67
2023/12/21 04:25:56;;;;;;;0.63;0.63;;;;;;;;;;4979699;28;20022;-67
2023/12/21 04:28:21;;;;;;;2.20;0.77;;;;;;;;;;4973421;28;20261;-67
2023/12/21 04:30:46;;;;;;;7.37;1.43;;;;;;;;;;4976318;28;20270;-67
2023/12/21 04:33:12;;;;;;;2.08;1.00;;;;;;;;;;4972160;28;20346;-67
2023/12/21 04:35:37;;;;;;;4.95;1.27;;;;;;;;;;4972278;28;20507;-67
2023/12/21 04:38:03;;;;;;;7.23;1.23;;;;;;;;;;4989257;28;20034;-67
2023/12/21 04:40:28;;;;;;;2.38;1.35;;;;;;;;;;4982771;28;20258;-67
2023/12/21 04:42:55;;;;;;;2.28;1.20;;;;;;;;;;4980689;28;20029;-67
2023/12/21 04:45:21;;;;;;;2.08;1.00;;;;;;;;;;4977015;28;20027;-67
2023/12/21 04:47:46;;;;;;;1.40;0.63;;;;;;;;;;4970150;28;20023;-67
2023/12/21 04:50:11;;;;;;;2.37;1.07;;;;;;;;;;4974279;28;20015;-67
2023/12/21 04:52:37;;;;;;;3.50;1.23;;;;;;;;;;4973435;28;20803;-67
2023/12/21 04:55:03;;;;;;;5.25;1.60;;;;;;;;;;4972302;28;20261;-67
2023/12/21 04:57:28;;;;;;;2.47;1.20;;;;;;;;;;4973214;28;20014;-67
2023/12/21 04:59:53;;;;;;;6.07;1.47;;;;;;;;;;4979027;28;20057;-68
2023/12/21 05:02:18;;;;;;;2.60;1.53;;;;;;;;;;4978747;28;20262;-68
2023/12/21 05:04:43;;;;;;;3.90;1.70;;;;;;;;;;4970940;28;20305;-68
2023/12/21 05:07:10;;;;;;;3.63;1.50;;;;;;;;;;4975860;28;20788;-68
2023/12/21 05:09:35;;;;;;;2.65;1.17;;;;;;;;;;4975869;28;20798;-68
2023/12/21 05:12:01;;;;;;;2.03;0.85;;;;;;;;;;4981530;28;20098;-67
2023/12/21 05:14:26;;;;;;;1.90;1.08;;;;;;;;;;4969987;28;20030;-68
2023/12/21 05:16:51;;;;;;;3.17;1.30;;;;;;;;;;4973348;28;20030;-68
2023/12/21 05:19:17;;;;;;;4.00;1.47;;;;;;;;;;4973061;28;20274;-68
2023/12/21 05:21:43;;;;;;;1.30;0.85;;;;;;;;;;4964652;28;20655;-68
2023/12/21 05:24:08;;;;;;;7.70;1.90;;;;;;;;;;4964247;28;20034;-68
2023/12/21 05:26:33;;;;;;;9.87;2.67;;;;;;;;;;4965007;28;20033;-68
2023/12/21 05:28:58;;;;;;;4.40;2.40;;;;;;;;;;4965539;28;20663;-68
2023/12/21 05:31:24;;;;;;;8.93;3.60;;;;;;;;;;4976927;28;20269;-68
2023/12/21 05:33:49;;;;;;;4.53;2.15;;;;;;;;;;4981111;28;20062;-68
2023/12/21 05:36:21;;;;;;;6.27;2.20;;;;;;;;;;4976789;28;20030;-68
2023/12/21 05:38:46;;;;;;;2.05;1.08;;;;;;;;;;4981991;28;20305;-67
2023/12/21 05:41:11;;;;;;;0.97;0.60;;;;;;;;;;4971912;28;20061;-67
2023/12/21 05:43:37;;;;;;;3.03;1.03;;;;;;;;;;4968058;28;20258;-67
2023/12/21 05:46:02;;;;;;;5.15;1.40;;;;;;;;;;4974311;28;20313;-67
2023/12/21 05:48:29;;;;;;;3.42;1.27;;;;;;;;;;4978171;28;20030;-67
2023/12/21 05:50:54;;;;;;;4.07;1.00;;;;;;;;;;4969448;28;20015;-67
2023/12/21 05:53:19;;;;;;;2.20;1.17;;;;;;;;;;4969751;28;20811;-68
2023/12/21 05:55:44;;;;;;;2.60;0.73;;;;;;;;;;4972917;28;20270;-68
2023/12/21 05:58:09;;;;;;;4.40;1.70;;;;;;;;;;4971586;28;20346;-67
2023/12/21 06:00:36;;;;;;;5.40;1.33;;;;;;;;;;4973475;28;20262;-67
2023/12/21 06:03:01;;;;;;;6.40;1.40;;;;;;;;;;4975344;28;20795;-67
2023/12/21 06:05:26;;;;;;;4.35;2.10;;;;;;;;;;4975199;28;20089;-67
2023/12/21 06:07:52;;;;;;;7.57;1.50;;;;;;;;;;4974361;28;20438;-68
2023/12/21 06:10:17;;;;;;;2.87;1.27;;;;;;;;;;4970989;28;20269;-68
2023/12/21 06:12:42;;;;;;;5.23;2.07;;;;;;;;;;4970360;28;20257;-69
2023/12/21 06:15:07;;;;;;;10.25;2.17;;;;;;;;;;4970185;28;20273;-69
2023/12/21 06:17:33;;;;;;;11.40;2.63;;;;;;;;;;4983548;28;20030;-68
2023/12/21 06:19:58;;;;;;;2.08;1.42;;;;;;;;;;4968541;28;20026;-68
2023/12/21 06:22:23;;;;;;;8.45;2.50;;;;;;;;;;4986992;28;20556;-68
2023/12/21 06:24:49;;;;;;;7.97;2.67;;;;;;;;;;4986224;28;20022;-68
2023/12/21 06:27:15;;;;;;;8.32;1.77;;;;;;;;;;4979098;28;20342;-67
2023/12/21 06:29:40;;;;;;;9.75;3.05;;;;;;;;;;4975795;28;20149;-67
2023/12/21 06:32:06;;;;;;;12.20;2.10;;;;;;;;;;4977102;28;20474;-68
2023/12/21 06:34:31;;;;;;;19.20;3.30;;;;;;;;;;4967303;28;20756;-67
2023/12/21 06:36:56;;;;;;;7.63;1.92;;;;;;;;;;4965545;28;20034;-67
2023/12/21 06:39:22;;;;;;;10.60;3.47;;;;;;;;;;4980979;28;20030;-68
2023/12/21 06:41:47;;;;;;;4.77;1.90;;;;;;;;;;4986062;28;20254;-69
2023/12/21 06:44:12;;;;;;;8.13;2.08;;;;;;;;;;4981918;28;20625;-69
2023/12/21 06:46:37;;;;;;;6.72;1.30;;;;;;;;;;4969353;28;20019;-68
2023/12/21 06:49:02;;;;;;;7.85;1.90;;;;;;;;;;4968633;28;20033;-67
2023/12/21 06:51:27;;;;;;;8.77;2.20;;;;;;;;;;4969532;28;20479;-68
2023/12/21 06:53:53;;;;;;;5.40;1.73;;;;;;;;;;4972990;28;20283;-68
2023/12/21 06:56:19;;;;;;;8.00;3.58;;;;;;;;;;4969788;28;20647;-68
2023/12/21 06:58:44;;;;;;;8.35;2.13;;;;;;;;;;4969224;28;20034;-68
2023/12/21 07:01:10;;;;;;;10.00;2.70;;;;;;;;;;4978347;28;20022;-68
2023/12/21 07:03:35;;;;;;;13.75;1.85;;;;;;;;;;4978448;28;20251;-68
2023/12/21 07:06:00;;;;;;;8.00;1.87;;;;;;;;;;4969827;28;20516;-68
2023/12/21 07:08:25;;;;;;;7.47;1.87;;;;;;;;;;4978715;28;20262;-69
2023/12/21 07:10:52;;;;;;;7.93;1.70;;;;;;;;;;4979477;28;20780;-69
2023/12/21 07:13:17;;;;;;;12.30;2.63;;;;;;;;;;4981064;28;20273;-69
2023/12/21 07:15:43;;;;;;;15.25;3.08;;;;;;;;;;4983898;28;20037;-69
2023/12/21 07:18:08;;;;;;;10.60;2.83;;;;;;;;;;4982737;28;20029;-69
2023/12/21 07:20:33;;;;;;;13.88;2.88;;;;;;;;;;4988045;28;20026;-68
2023/12/21 07:22:59;;;;;;;11.70;3.30;;;;;;;;;;4980681;28;20034;-68
2023/12/21 07:25:24;;;;;;;8.43;2.28;;;;;;;;;;4981016;28;20031;-68
2023/12/21 07:27:49;;;;;;;11.85;3.50;;;;;;;;;;4974947;28;20023;-68
2023/12/21 07:30:15;;;;;;;5.83;1.70;;;;;;;;;;4977052;28;20019;-67
2023/12/21 07:32:40;;;;;;;15.90;2.97;;;;;;;;;;4970879;28;20292;-68
2023/12/21 07:35:06;;;;;;;9.18;2.50;;;;;;;;;;4986244;28;20030;-67
2023/12/21 07:37:31;;;;;;;7.53;1.65;;;;;;;;;;4978949;28;20027;-67
2023/12/21 07:39:56;;;;;;;10.82;3.08;;;;;;;;;;4972501;28;20112;-67
2023/12/21 07:42:21;;;;;;;3.85;2.10;;;;;;;;;;4976108;28;20026;-67
2023/12/21 07:44:46;;;;;;;12.93;2.63;;;;;;;;;;4981451;28;20033;-67
2023/12/21 07:47:12;;;;;;;8.93;2.73;;;;;;;;;;4980324;28;20621;-68
2023/12/21 07:49:37;;;;;;;7.88;2.50;;;;;;;;;;4970660;28;20265;-67
2023/12/21 07:52:02;;;;;;;10.70;2.57;;;;;;;;;;4977455;28;20535;-68
2023/12/21 07:54:28;;;;;;;14.40;2.35;;;;;;;;;;4976083;28;20266;-67
2023/12/21 07:56:53;;;;;;;10.70;2.73;;;;;;;;;;4972126;28;20295;-67
2023/12/21 07:59:19;;;;;;;7.50;2.53;;;;;;;;;;4984048;28;20284;-67
2023/12/21 08:01:45;;;;;;;9.48;2.78;;;;;;;;;;4971062;28;20777;-68
2023/12/21 08:04:11;;;;;;;12.23;2.05;;;;;;;;;;4977485;28;20485;-69
2023/12/21 08:06:36;;;;;;;9.55;1.85;;;;;;;;;;5005945;28;20022;-68
2023/12/21 08:09:01;;;;;;;3.25;1.90;;;;;;;;;;4982527;28;20027;-68
2023/12/21 08:11:26;;;;;;;11.60;2.60;;;;;;;;;;4969662;28;20601;-68
2023/12/21 08:13:52;;;;;;;11.33;2.40;;;;;;;;;;4975921;28;20285;-68
2023/12/21 08:16:17;;;;;;;8.83;1.80;;;;;;;;;;4975175;28;20265;-69
2023/12/21 08:18:43;;;;;;;11.00;1.83;;;;;;;;;;4969299;28;20274;-69
2023/12/21 08:21:09;;;;;;;8.20;2.35;;;;;;;;;;4972302;28;20019;-68
2023/12/21 08:23:34;;;;;;;4.72;2.28;;;;;;;;;;4975026;28;20046;-69
2023/12/21 08:25:59;;;;;;;13.43;3.30;;;;;;;;;;4975914;28;20078;-68
2023/12/21 08:28:26;;;;;;;15.45;2.63;;;;;;;;;;4971844;28;20359;-67
2023/12/21 08:30:52;;;;;;;19.30;2.55;;;;;;;;;;4971437;28;20048;-69
2023/12/21 08:33:17;;;;;;;12.00;3.83;;;;;;;;;;4971287;28;20015;-69
2023/12/21 08:35:43;;;;;;;7.15;2.65;;;;;;;;;;4971431;28;20361;-67
2023/12/21 08:38:08;;;;;;;13.73;2.58;;;;;;;;;;4972696;28;20056;-67
2023/12/21 08:40:34;;;;;;;10.38;2.47;;;;;;;;;;4971449;28;20481;-68
2023/12/21 08:42:59;;;;;;;16.13;2.10;;;;;;;;;;4976083;28;20022;-69
2023/12/21 08:45:25;;;;;;;7.63;1.60;;;;;;;;;;4973016;28;20030;-69
2023/12/21 08:47:50;;;;;;;7.32;1.80;;;;;;;;;;4976011;28;20253;-69
2023/12/21 08:50:15;;;;;;;8.73;2.33;;;;;;;;;;4973317;28;20482;-69
2023/12/21 08:52:41;;;;;;;16.45;3.35;;;;;;;;;;4970169;28;20068;-69
2023/12/21 08:55:07;;;;;;;2.90;1.40;;;;;;;;;;5005497;28;20391;-69
2023/12/21 08:57:36;;;;;;;9.93;2.40;;;;;;;;;;4985957;28;20061;-69
2023/12/21 09:00:03;;;;;;;10.88;2.47;;;;;;;;;;5059320;28;20039;-69
2023/12/21 09:02:28;;;;;;;2.50;1.17;;;;;;;;;;5051774;28;20026;-69
2023/12/21 09:04:54;;;;;;;12.55;2.10;;;;;;;;;;4990178;28;20483;-69
2023/12/21 09:07:19;;;;;;;12.07;1.60;;;;;;;;;;4982070;28;20520;-69
2023/12/21 09:09:44;;;;;;;8.13;1.80;;;;;;;;;;5056543;28;20328;-69
2023/12/21 09:12:09;;;;;;;9.97;2.20;;;;;;;;;;4995666;28;20880;-69
2023/12/21 09:14:34;;;;;;;10.70;1.63;;;;;;;;;;5023710;28;20266;-70
2023/12/21 09:17:00;;;;;;;8.98;2.13;;;;;;;;;;5056164;28;20255;-69
2023/12/21 09:19:26;;;;;;;10.57;1.88;;;;;;;;;;5008959;28;20039;-69
2023/12/21 09:21:52;;;;;;;4.40;1.02;;;;;;;;;;4970120;28;20030;-69
2023/12/21 09:24:17;;;;;;;14.73;2.43;;;;;;;;;;5004650;28;20035;-69
2023/12/21 09:26:43;;;;;;;5.80;1.43;;;;;;;;;;4983618;28;20585;-69
2023/12/21 09:29:08;;;;;;;7.72;1.77;;;;;;;;;;4983613;28;20726;-69
2023/12/21 09:31:33;;;;;;;9.45;1.40;;;;;;;;;;5008115;28;20507;-68
2023/12/21 09:33:59;;;;;;;5.43;1.85;;;;;;;;;;5002694;28;20034;-68
2023/12/21 09:36:24;;;;;;;3.88;1.08;;;;;;;;;;5010939;28;20119;-68
2023/12/21 09:38:49;;;;;;;5.57;1.17;;;;;;;;;;4974648;28;20073;-69
2023/12/21 09:41:15;;;;;;;3.87;0.97;;;;;;;;;;4974277;28;20100;-68
2023/12/21 09:43:40;;;;;;;5.33;1.23;;;;;;;;;;4969798;28;20281;-69
2023/12/21 09:46:06;;;;;;;2.45;1.00;;;;;;;;;;4967455;28;20368;-69
2023/12/21 09:48:31;;;;;;;3.15;1.52;;;;;;;;;;4975925;28;20022;-69
2023/12/21 09:51:02;;;;;;;3.65;1.13;;;;;;;;;;4972415;28;20480;-69
2023/12/21 09:53:28;;;;;;;5.22;1.85;;;;;;;;;;4970949;28;20176;-69
2023/12/21 09:55:53;;;;;;;6.38;1.60;;;;;;;;;;4969615;28;20097;-69
2023/12/21 09:58:18;;;;;;;4.68;1.17;;;;;;;;;;4983436;28;20109;-69
2023/12/21 10:00:44;;;;;;;4.10;1.55;;;;;;;;;;4986427;28;20036;-68
2023/12/21 10:03:09;;;;;;;1.98;1.00;;;;;;;;;;4975475;28;20504;-69
2023/12/21 10:05:34;;;;;;;9.60;1.55;;;;;;;;;;4968338;28;20030;-69
2023/12/21 10:08:00;;;;;;;6.72;1.60;;;;;;;;;;4968853;28;20023;-69
2023/12/21 10:10:25;;;;;;;2.00;1.10;;;;;;;;;;4968144;28;20084;-69
2023/12/21 10:12:50;;;;;;;2.47;1.05;;;;;;;;;;4966900;28;20026;-69
2023/12/21 10:15:19;;;;;;;2.63;1.60;;;;;;;;;;4966684;28;20026;-69
2023/12/21 10:17:44;;;;;;;4.53;2.00;;;;;;;;;;4968460;28;20731;-69
2023/12/21 10:20:12;;;;;;;5.10;1.48;;;;;;;;;;4970249;28;20042;-69
2023/12/21 10:22:42;;;;;;;5.68;1.23;;;;;;;;;;4970541;28;20037;-69
2023/12/21 10:25:08;;;;;;;6.47;2.05;;;;;;;;;;4964947;28;20029;-69
2023/12/21 10:27:33;;;;;;;3.65;1.75;;;;;;;;;;4964066;28;20023;-69
2023/12/21 10:29:58;;;;;;;5.38;1.80;;;;;;;;;;4965751;28;20385;-69
2023/12/21 10:32:23;;;;;;;4.13;1.48;;;;;;;;;;4968178;28;20037;-69
2023/12/21 10:34:49;;;;;;;1.92;1.40;;;;;;;;;;4964268;28;20027;-69
2023/12/21 10:37:14;;;;;;;2.40;1.00;;;;;;;;;;4965910;28;20057;-69
2023/12/21 10:39:40;;;;;;;5.05;1.42;;;;;;;;;;4966762;28;20266;-69
2023/12/21 10:42:05;;;;;;;6.75;2.30;;;;;;;;;;4968480;28;20653;-68
2023/12/21 10:44:30;;;;;;;7.15;2.15;;;;;;;;;;4968684;28;20500;-69
2023/12/21 10:46:55;;;;;;;5.67;2.27;;;;;;;;;;4968926;28;20960;-69
2023/12/21 10:49:21;;;;;;;4.97;2.97;;;;;;;;;;4966112;28;20270;-70
2023/12/21 10:51:47;;;;;;;3.80;1.88;;;;;;;;;;4966197;28;20034;-69
2023/12/21 10:54:12;;;;;;;4.68;1.75;;;;;;;;;;4966676;28;20027;-69
2023/12/21 10:56:39;;;;;;;5.15;1.40;;;;;;;;;;4966386;28;20035;-69
2023/12/21 10:59:06;;;;;;;7.38;3.15;;;;;;;;;;4967846;28;20023;-69
2023/12/21 11:01:32;;;;;;;3.78;2.38;;;;;;;;;;4966411;28;20026;-68
2023/12/21 11:04:00;;;;;;;4.88;2.30;;;;;;;;;;4966433;28;20027;-68
2023/12/21 11:06:30;;;;;;;5.38;3.05;;;;;;;;;;4965983;28;20198;-69
2023/12/21 11:08:56;;;;;;;3.38;1.67;;;;;;;;;;4967018;28;20027;-69
2023/12/21 11:11:24;;;;;;;5.93;3.38;;;;;;;;;;4970282;28;20088;-68
2023/12/21 11:13:52;;;;;;;12.25;4.60;;;;;;;;;;4982699;28;20473;-68
2023/12/21 11:16:19;;;;;;;14.27;3.58;;;;;;;;;;4968735;28;20060;-69
2023/12/21 11:18:45;;;;;;;7.32;3.55;;;;;;;;;;4961850;28;20096;-68
2023/12/21 11:21:11;;;;;;;8.45;5.85;;;;;;;;;;4964736;28;20246;-68
2023/12/21 11:23:42;;;;;;;13.25;5.47;;;;;;;;;;4965479;28;20451;-68
2023/12/21 11:26:07;;;;;;;8.95;4.97;;;;;;;;;;4970040;28;20042;-68
2023/12/21 11:28:34;;;;;;;10.95;5.93;;;;;;;;;;4967513;28;20027;-68
2023/12/21 11:31:10;;;;;;;6.28;3.20;;;;;;;;;;4965406;28;20429;-68
2023/12/21 11:33:36;;;;;;;17.45;6.82;;;;;;;;;;4963865;28;20049;-68
2023/12/21 11:36:02;;;;;;;14.80;7.23;;;;;;;;;;4966089;28;20507;-68
2023/12/21 11:38:44;;;;;;;18.70;6.40;;;;;;;;;;4966934;28;20277;-68
2023/12/21 11:41:10;;;;;;;11.57;5.60;;;;;;;;;;4965580;28;20019;-69
2023/12/21 11:43:35;;;;;;;24.45;7.93;;;;;;;;;;4972520;28;20034;-69
2023/12/21 11:46:00;;;;;;;13.88;6.43;;;;;;;;;;4971236;28;20378;-69
2023/12/21 11:48:26;;;;;;;15.85;6.15;;;;;;;;;;4969611;28;20035;-68
2023/12/21 11:50:59;;;;;;;17.20;6.22;;;;;;;;;;4987966;28;20019;-69
2023/12/21 11:53:25;;;;;;;12.70;5.90;;;;;;;;;;4971759;28;20015;-68
2023/12/21 11:55:51;;;;;;;13.45;4.85;;;;;;;;;;4974067;28;20031;-68
2023/12/21 11:58:21;;;;;;;13.73;5.38;;;;;;;;;;4972413;28;20030;-68
2023/12/21 12:00:51;;;;;;;15.13;5.80;;;;;;;;;;4974553;28;20034;-68
2023/12/21 12:03:17;;;;;;;13.07;4.07;;;;;;;;;;4977790;28;20038;-67
2023/12/21 12:05:42;;;;;;;12.63;5.07;;;;;;;;;;4974896;28;20027;-68
2023/12/21 12:08:07;;;;;;;15.27;4.53;;;;;;;;;;4975687;28;20105;-68
2023/12/21 12:10:33;;;;;;;9.18;3.20;;;;;;;;;;4974997;28;20022;-68
2023/12/21 12:12:59;;;;;;;10.77;3.28;;;;;;;;;;4973081;28;20026;-68
2023/12/21 12:15:24;;;;;;;9.05;3.47;;;;;;;;;;4974262;28;20026;-68
2023/12/21 12:17:49;;;;;;;7.63;2.25;;;;;;;;;;4975000;28;20126;-67
2023/12/21 12:20:14;;;;;;;9.77;3.10;;;;;;;;;;4976714;28;20050;-68
2023/12/21 12:22:40;;;;;;;4.93;2.05;;;;;;;;;;4975890;28;20342;-67
2023/12/21 12:25:05;;;;;;;6.05;1.90;;;;;;;;;;4975330;28;20354;-67
2023/12/21 12:27:31;;;;;;;2.78;1.67;;;;;;;;;;4974840;28;20473;-67
2023/12/21 12:29:56;;;;;;;5.72;2.00;;;;;;;;;;4997839;28;20062;-68
2023/12/21 12:32:21;;;;;;;4.32;1.48;;;;;;;;;;4977355;28;20026;-68
2023/12/21 12:34:47;;;;;;;8.52;2.47;;;;;;;;;;4987483;28;20031;-68
2023/12/21 12:37:13;;;;;;;9.65;3.15;;;;;;;;;;4975372;28;20019;-68
2023/12/21 12:39:38;;;;;;;5.70;1.98;;;;;;;;;;4979756;28;20049;-67
2023/12/21 12:42:05;;;;;;;3.93;1.60;;;;;;;;;;4971376;28;20500;-67
2023/12/21 12:44:31;;;;;;;5.78;2.38;;;;;;;;;;4975730;28;20277;-67
2023/12/21 12:46:56;;;;;;;3.92;1.50;;;;;;;;;;4967951;28;20034;-67
2023/12/21 12:49:22;;;;;;;12.25;2.55;;;;;;;;;;4978846;28;20486;-67
2023/12/21 12:51:47;;;;;;;5.50;1.63;;;;;;;;;;4989103;28;20105;-67
2023/12/21 12:54:12;;;;;;;6.72;1.92;;;;;;;;;;4973562;28;20023;-67
2023/12/21 12:56:47;;;;;;;6.78;1.60;;;;;;;;;;4975350;28;20021;-67
2023/12/21 12:59:12;;;;;;;7.53;1.45;;;;;;;;;;4970597;28;20026;-67
2023/12/21 13:01:38;;;;;;;4.63;1.13;;;;;;;;;;4983610;28;20022;-68
2023/12/21 13:04:03;;;;;;;2.00;0.93;;;;;;;;;;4973497;28;20620;-68
2023/12/21 13:06:28;;;;;;;3.42;1.13;;;;;;;;;;4973879;28;20451;-67
2023/12/21 13:08:54;;;;;;;6.63;1.20;;;;;;;;;;4972974;28;20528;-67
2023/12/21 13:11:19;;;;;;;2.63;0.90;;;;;;;;;;4975710;28;20027;-67
2023/12/21 13:13:44;;;;;;;1.48;0.93;;;;;;;;;;4978112;28;20278;-68
2023/12/21 13:16:09;;;;;;;4.30;1.25;;;;;;;;;;4970316;28;20023;-67
2023/12/21 13:18:34;;;;;;;3.77;1.20;;;;;;;;;;4979321;28;20199;-67
2023/12/21 13:21:00;;;;;;;7.53;1.80;;;;;;;;;;4974273;28;20266;-67
2023/12/21 13:23:25;;;;;;;6.97;1.20;;;;;;;;;;4975271;28;20019;-68
2023/12/21 13:25:50;;;;;;;6.10;1.97;;;;;;;;;;4972805;28;20531;-67
2023/12/21 13:28:15;;;;;;;3.20;0.90;;;;;;;;;;4974050;28;20297;-69
2023/12/21 13:30:40;;;;;;;10.77;1.40;;;;;;;;;;4975535;28;20798;-69
2023/12/21 13:33:08;;;;;;;4.95;1.05;;;;;;;;;;4974972;28;20106;-69
2023/12/21 13:35:33;;;;;;;3.20;0.88;;;;;;;;;;4974717;28;20556;-69
2023/12/21 13:37:58;;;;;;;3.25;0.98;;;;;;;;;;4967669;28;20113;-69
2023/12/21 13:40:27;;;;;;;2.93;1.37;;;;;;;;;;4971082;28;20023;-69
2023/12/21 13:42:52;;;;;;;5.00;2.10;;;;;;;;;;4972891;28;20261;-68
2023/12/21 13:45:17;;;;;;;8.47;1.87;;;;;;;;;;4975295;28;20022;-68
2023/12/21 13:47:43;;;;;;;3.10;1.40;;;;;;;;;;4970327;28;20270;-68
2023/12/21 13:50:08;;;;;;;11.85;1.85;;;;;;;;;;4975639;28;20278;-68
2023/12/21 13:52:33;;;;;;;5.50;1.80;;;;;;;;;;4978580;28;20106;-68
2023/12/21 13:54:58;;;;;;;2.20;0.90;;;;;;;;;;4979527;28;20025;-68
2023/12/21 13:57:24;;;;;;;6.55;1.27;;;;;;;;;;4973730;28;20026;-68
2023/12/21 13:59:49;;;;;;;2.50;1.10;;;;;;;;;;4964711;28;20027;-67
2023/12/21 14:02:14;;;;;;;5.73;1.57;;;;;;;;;;4967788;28;20282;-67
2023/12/21 14:04:39;;;;;;;3.17;1.27;;;;;;;;;;4971304;28;20361;-67
2023/12/21 14:07:04;;;;;;;2.33;0.87;;;;;;;;;;4974252;28;20270;-68
2023/12/21 14:09:30;;;;;;;6.38;1.50;;;;;;;;;;4977340;28;20512;-68
2023/12/21 14:11:55;;;;;;;2.17;0.90;;;;;;;;;;4977485;28;20027;-68
2023/12/21 14:14:20;;;;;;;9.43;1.67;;;;;;;;;;4971157;28;20053;-68
2023/12/21 14:16:45;;;;;;;4.13;1.20;;;;;;;;;;4965009;28;20035;-68
2023/12/21 14:19:11;;;;;;;4.50;1.40;;;;;;;;;;4975659;28;20285;-68
2023/12/21 14:21:36;;;;;;;5.07;1.60;;;;;;;;;;4977160;28;20029;-68
2023/12/21 14:24:01;;;;;;;5.20;1.13;;;;;;;;;;4974276;28;20019;-67
2023/12/21 14:26:26;;;;;;;4.93;1.10;;;;;;;;;;4976794;28;20031;-68
2023/12/21 14:28:52;;;;;;;7.10;0.90;;;;;;;;;;4971018;28;20068;-67
2023/12/21 14:31:17;;;;;;;8.03;1.03;;;;;;;;;;4972998;28;20019;-67